Time;durP1;ratioP1;P1;durP2;ratioP2;P2;SDS_P1;SDS_P2;PMS_P1;PMS_P2;Temp;Humidity;BMP_temperature;BMP_pressure;BME280_temperature;BME280_humidity;BME280_pressure;Samples;Min_cycle;Max_cycle;Signal;HPM_P1;HPM_P2
2023/04/04 00:30:48;;;;;;;1.13;1.00;;;;;;;;;;4993740;28;20241;-40
2023/04/04 00:33:15;;;;;;;2.53;0.93;;;;;;;;;;4994503;28;20212;-39
2023/04/04 00:35:43;;;;;;;1.20;0.97;;;;;;;;;;4995561;28;20206;-39
2023/04/04 00:38:10;;;;;;;1.20;1.10;;;;;;;;;;4994285;28;20316;-39
2023/04/04 00:40:41;;;;;;;0.90;0.90;;;;;;;;;;4995669;28;20206;-40
2023/04/04 00:43:08;;;;;;;1.00;0.90;;;;;;;;;;4995095;28;20216;-39
2023/04/04 00:45:35;;;;;;;1.10;0.90;;;;;;;;;;4995622;28;20217;-39
2023/04/04 00:48:02;;;;;;;2.40;1.17;;;;;;;;;;5010386;28;20212;-40
2023/04/04 00:50:31;;;;;;;1.30;1.07;;;;;;;;;;5010198;28;20737;-39
2023/04/04 00:52:59;;;;;;;3.53;1.27;;;;;;;;;;4995164;28;20202;-39
2023/04/04 00:55:26;;;;;;;1.03;0.93;;;;;;;;;;4995018;28;20662;-39
2023/04/04 00:57:53;;;;;;;2.27;0.93;;;;;;;;;;4994819;28;20253;-39
2023/04/04 01:00:21;;;;;;;2.60;1.37;;;;;;;;;;5009775;28;20252;-39
2023/04/04 01:02:49;;;;;;;1.50;1.30;;;;;;;;;;4995230;28;20201;-39
2023/04/04 01:05:17;;;;;;;2.00;0.97;;;;;;;;;;4994755;28;20206;-39
2023/04/04 01:07:44;;;;;;;1.13;1.03;;;;;;;;;;4994742;28;20294;-39
2023/04/04 01:10:12;;;;;;;2.33;1.00;;;;;;;;;;4994817;28;20559;-39
2023/04/04 01:12:41;;;;;;;1.80;1.50;;;;;;;;;;5009113;28;20699;-39
2023/04/04 01:15:09;;;;;;;1.73;1.00;;;;;;;;;;4994092;28;20661;-39
2023/04/04 01:17:36;;;;;;;1.87;1.10;;;;;;;;;;4994985;28;20705;-39
2023/04/04 01:20:12;;;;;;;1.37;1.10;;;;;;;;;;5009514;28;20229;-39
2023/04/04 01:22:48;;;;;;;1.20;0.90;;;;;;;;;;4993367;28;20625;-39
2023/04/04 01:25:18;;;;;;;2.17;1.30;;;;;;;;;;4993365;28;20202;-39
2023/04/04 01:27:51;;;;;;;5.70;1.30;;;;;;;;;;5010016;28;20209;-39
2023/04/04 01:30:19;;;;;;;2.20;1.43;;;;;;;;;;5009707;28;20259;-39
2023/04/04 01:33:19;;;;;;;0.87;0.87;;;;;;;;;;4996776;28;20634;-39
2023/04/04 01:36:12;;;;;;;4.17;1.23;;;;;;;;;;5013413;28;20201;-39
2023/04/04 01:38:50;;;;;;;1.20;1.07;;;;;;;;;;4997311;28;20225;-39
2023/04/04 01:41:19;;;;;;;1.70;1.20;;;;;;;;;;5013969;28;20259;-40
2023/04/04 01:43:53;;;;;;;1.43;1.10;;;;;;;;;;4996857;28;20216;-39
2023/04/04 01:46:21;;;;;;;2.67;1.10;;;;;;;;;;4996709;28;20244;-39
2023/04/04 01:48:49;;;;;;;2.93;1.57;;;;;;;;;;4996229;28;20232;-39
2023/04/04 01:51:22;;;;;;;1.70;1.33;;;;;;;;;;4996235;28;20206;-39
2023/04/04 01:53:51;;;;;;;1.20;1.10;;;;;;;;;;5012693;28;20288;-39
2023/04/04 01:56:18;;;;;;;2.33;1.30;;;;;;;;;;5013661;28;20219;-39
2023/04/04 01:58:46;;;;;;;1.73;1.10;;;;;;;;;;5029727;28;20312;-39
2023/04/04 02:01:13;;;;;;;1.67;1.20;;;;;;;;;;5016037;28;20216;-39
2023/04/04 02:03:41;;;;;;;3.40;1.80;;;;;;;;;;5015672;28;20211;-38
2023/04/04 02:06:09;;;;;;;2.17;1.50;;;;;;;;;;5033540;28;20231;-39
2023/04/04 02:08:37;;;;;;;3.20;1.67;;;;;;;;;;5033403;28;20209;-39
2023/04/04 02:11:05;;;;;;;3.47;1.10;;;;;;;;;;5016056;28;20212;-39
2023/04/04 02:13:32;;;;;;;3.03;1.17;;;;;;;;;;5033088;28;20711;-39
2023/04/04 02:16:00;;;;;;;2.30;1.43;;;;;;;;;;5015696;28;20201;-39
2023/04/04 02:18:27;;;;;;;3.23;1.53;;;;;;;;;;5015680;28;20224;-39
2023/04/04 02:20:58;;;;;;;3.57;1.40;;;;;;;;;;5015782;28;20200;-39
2023/04/04 02:23:25;;;;;;;1.40;1.13;;;;;;;;;;5034829;28;20204;-39
2023/04/04 02:25:53;;;;;;;2.33;1.73;;;;;;;;;;5019983;28;20205;-39
2023/04/04 02:28:21;;;;;;;2.23;1.43;;;;;;;;;;5019717;28;20278;-39
2023/04/04 02:30:48;;;;;;;1.17;1.07;;;;;;;;;;5037038;28;20240;-39
2023/04/04 02:33:16;;;;;;;2.13;1.33;;;;;;;;;;5019661;28;20648;-39
2023/04/04 02:35:44;;;;;;;5.43;1.97;;;;;;;;;;5019301;28;20204;-40
2023/04/04 02:38:11;;;;;;;1.87;1.53;;;;;;;;;;5037507;28;20270;-39
2023/04/04 02:40:45;;;;;;;3.03;1.50;;;;;;;;;;5019753;28;20212;-39
2023/04/04 02:43:12;;;;;;;3.37;1.80;;;;;;;;;;5019267;28;20287;-39
2023/04/04 02:45:40;;;;;;;1.53;1.40;;;;;;;;;;5019434;28;20205;-39
2023/04/04 02:48:35;;;;;;;1.53;1.27;;;;;;;;;;5033696;28;20216;-39
2023/04/04 02:51:02;;;;;;;3.77;1.07;;;;;;;;;;5035778;28;20255;-39
2023/04/04 02:53:31;;;;;;;1.83;1.40;;;;;;;;;;5019561;28;20291;-40
2023/04/04 02:56:07;;;;;;;2.43;1.50;;;;;;;;;;5019166;28;20176;-40
2023/04/04 02:58:34;;;;;;;1.27;0.97;;;;;;;;;;5036688;28;20205;-39
2023/04/04 03:01:01;;;;;;;3.80;1.63;;;;;;;;;;5019181;28;20646;-39
2023/04/04 03:03:33;;;;;;;3.20;1.97;;;;;;;;;;5019123;28;20201;-39
2023/04/04 03:06:02;;;;;;;1.77;1.40;;;;;;;;;;5018968;28;20216;-39
2023/04/04 03:08:29;;;;;;;2.27;1.40;;;;;;;;;;5036313;28;20207;-39
2023/04/04 03:10:58;;;;;;;2.33;1.83;;;;;;;;;;5018939;28;20211;-39
2023/04/04 03:13:26;;;;;;;2.50;1.70;;;;;;;;;;5018674;28;20211;-39
2023/04/04 03:16:02;;;;;;;3.60;1.67;;;;;;;;;;5018732;28;20679;-39
2023/04/04 03:18:39;;;;;;;4.07;1.87;;;;;;;;;;5018941;28;20204;-39
2023/04/04 03:21:07;;;;;;;1.57;1.47;;;;;;;;;;5035994;28;20209;-39
2023/04/04 03:23:34;;;;;;;2.83;1.73;;;;;;;;;;5035978;28;20200;-39
2023/04/04 03:26:02;;;;;;;2.17;1.77;;;;;;;;;;5018516;28;20201;-39
2023/04/04 03:28:30;;;;;;;2.23;1.53;;;;;;;;;;5018212;28;20676;-40
2023/04/04 03:31:05;;;;;;;3.17;1.90;;;;;;;;;;5018329;28;20600;-40
2023/04/04 03:33:41;;;;;;;1.93;1.73;;;;;;;;;;5035763;28;20200;-39
2023/04/04 03:36:11;;;;;;;1.93;1.67;;;;;;;;;;5035364;28;20185;-39
2023/04/04 03:38:38;;;;;;;3.60;2.00;;;;;;;;;;5032249;28;20605;-40
2023/04/04 03:41:06;;;;;;;2.37;2.10;;;;;;;;;;5026235;28;20209;-40
2023/04/04 03:43:34;;;;;;;1.30;1.20;;;;;;;;;;5032523;28;20207;-40
2023/04/04 03:46:03;;;;;;;2.67;1.63;;;;;;;;;;5034779;28;20213;-40
2023/04/04 03:48:30;;;;;;;3.23;2.00;;;;;;;;;;5017412;28;20243;-41
2023/04/04 03:50:58;;;;;;;4.93;1.80;;;;;;;;;;5035312;28;20204;-39
2023/04/04 03:53:25;;;;;;;3.20;1.50;;;;;;;;;;5017051;28;20584;-39
2023/04/04 03:55:54;;;;;;;5.07;1.67;;;;;;;;;;5034792;28;20201;-40
2023/04/04 03:58:22;;;;;;;2.70;1.40;;;;;;;;;;5017454;28;20295;-39
2023/04/04 04:00:50;;;;;;;2.50;1.60;;;;;;;;;;5016647;28;20228;-41
2023/04/04 04:03:17;;;;;;;1.43;1.20;;;;;;;;;;5033042;28;20200;-41
2023/04/04 04:05:46;;;;;;;1.77;1.33;;;;;;;;;;5016207;28;20209;-42
2023/04/04 04:08:13;;;;;;;3.33;1.83;;;;;;;;;;5016548;28;20299;-39
2023/04/04 04:10:40;;;;;;;2.03;1.50;;;;;;;;;;5028006;28;20721;-41
2023/04/04 04:13:08;;;;;;;3.90;1.60;;;;;;;;;;5042202;28;20220;-43
2023/04/04 04:15:36;;;;;;;2.30;1.77;;;;;;;;;;5015210;28;20217;-39
2023/04/04 04:18:06;;;;;;;1.90;1.67;;;;;;;;;;5025244;28;20225;-42
2023/04/04 04:20:35;;;;;;;2.23;1.50;;;;;;;;;;5012774;28;20229;-39
2023/04/04 04:23:02;;;;;;;3.10;2.03;;;;;;;;;;5039416;28;20779;-40
2023/04/04 04:25:30;;;;;;;3.20;2.10;;;;;;;;;;5015513;28;20228;-40
2023/04/04 04:28:14;;;;;;;4.90;1.70;;;;;;;;;;5028562;28;20228;-40
2023/04/04 04:30:41;;;;;;;1.90;1.57;;;;;;;;;;5016621;28;20285;-40
2023/04/04 04:33:09;;;;;;;2.30;1.70;;;;;;;;;;5016754;28;20228;-40
2023/04/04 04:35:46;;;;;;;2.33;1.50;;;;;;;;;;5016776;28;20553;-39
2023/04/04 04:38:13;;;;;;;3.83;2.27;;;;;;;;;;5033149;28;20216;-39
2023/04/04 04:40:41;;;;;;;1.50;1.00;;;;;;;;;;5033328;28;20240;-39
2023/04/04 04:43:17;;;;;;;2.30;1.57;;;;;;;;;;5033514;28;20775;-43
2023/04/04 04:45:49;;;;;;;2.17;1.27;;;;;;;;;;5014241;28;20303;-40
2023/04/04 04:48:17;;;;;;;1.60;1.37;;;;;;;;;;5013651;28;20271;-40
2023/04/04 04:50:48;;;;;;;1.43;1.33;;;;;;;;;;5014698;28;20251;-40
2023/04/04 04:53:25;;;;;;;2.60;1.73;;;;;;;;;;5016075;28;20248;-41
2023/04/04 04:55:53;;;;;;;2.13;1.50;;;;;;;;;;5015649;28;20275;-40
2023/04/04 04:58:22;;;;;;;3.53;1.77;;;;;;;;;;5033780;28;20918;-40
2023/04/04 05:00:58;;;;;;;2.13;1.50;;;;;;;;;;5015954;28;20233;-39
2023/04/04 05:03:33;;;;;;;2.13;1.80;;;;;;;;;;5022063;28;20251;-41
2023/04/04 05:06:03;;;;;;;3.90;2.17;;;;;;;;;;5021605;28;20225;-41
2023/04/04 05:08:31;;;;;;;2.37;1.77;;;;;;;;;;5015809;28;20228;-39
2023/04/04 05:11:08;;;;;;;2.30;1.47;;;;;;;;;;5031925;28;20248;-40
2023/04/04 05:13:36;;;;;;;1.70;1.50;;;;;;;;;;5032415;28;20224;-40
2023/04/04 05:16:04;;;;;;;3.17;1.93;;;;;;;;;;5048614;28;20229;-44
2023/04/04 05:18:33;;;;;;;3.67;1.60;;;;;;;;;;5015997;28;20225;-41
2023/04/04 05:21:01;;;;;;;1.87;1.40;;;;;;;;;;5015888;28;20224;-40
2023/04/04 05:23:29;;;;;;;3.80;1.33;;;;;;;;;;5012290;28;20213;-40
2023/04/04 05:25:56;;;;;;;2.50;1.53;;;;;;;;;;5014029;28;20201;-40
2023/04/04 05:28:27;;;;;;;1.83;1.33;;;;;;;;;;5013168;28;20193;-40
2023/04/04 05:30:58;;;;;;;4.43;2.13;;;;;;;;;;5012741;28;20249;-41
2023/04/04 05:33:28;;;;;;;2.67;1.53;;;;;;;;;;5013032;28;20213;-39
2023/04/04 05:36:22;;;;;;;1.67;1.57;;;;;;;;;;5011385;28;20198;-39
2023/04/04 05:38:54;;;;;;;2.10;1.70;;;;;;;;;;5012800;28;20260;-40
2023/04/04 05:41:26;;;;;;;2.27;1.80;;;;;;;;;;5012516;28;20686;-39
2023/04/04 05:43:58;;;;;;;1.80;1.50;;;;;;;;;;5013035;28;20599;-39
2023/04/04 05:46:26;;;;;;;1.73;1.50;;;;;;;;;;5026906;28;20196;-39
2023/04/04 05:48:54;;;;;;;5.80;1.63;;;;;;;;;;5031771;28;20649;-39
2023/04/04 05:51:22;;;;;;;2.07;1.43;;;;;;;;;;5014445;28;20204;-40
2023/04/04 05:53:57;;;;;;;1.60;1.40;;;;;;;;;;5014874;28;20203;-39
2023/04/04 05:56:29;;;;;;;2.83;1.90;;;;;;;;;;5012655;28;20208;-45
2023/04/04 05:58:58;;;;;;;1.97;1.57;;;;;;;;;;5014453;28;20192;-40
2023/04/04 06:01:28;;;;;;;3.50;1.67;;;;;;;;;;5012485;28;20570;-40
2023/04/04 06:03:59;;;;;;;1.87;1.50;;;;;;;;;;5014691;28;20283;-41
2023/04/04 06:06:27;;;;;;;2.20;1.80;;;;;;;;;;5011449;28;20228;-39
2023/04/04 06:08:54;;;;;;;2.60;1.80;;;;;;;;;;5015809;28;20205;-40
2023/04/04 06:11:22;;;;;;;3.30;2.10;;;;;;;;;;5015867;28;20208;-40
2023/04/04 06:13:51;;;;;;;2.40;1.93;;;;;;;;;;5015818;28;20211;-39
2023/04/04 06:16:20;;;;;;;3.13;1.80;;;;;;;;;;5033730;28;20211;-40
2023/04/04 06:18:48;;;;;;;1.70;1.60;;;;;;;;;;5033114;28;20287;-40
2023/04/04 06:21:16;;;;;;;4.50;1.70;;;;;;;;;;5014591;28;20231;-40
2023/04/04 06:23:43;;;;;;;2.07;1.67;;;;;;;;;;5042212;28;20204;-40
2023/04/04 06:26:11;;;;;;;1.50;1.13;;;;;;;;;;5013655;28;20208;-40
2023/04/04 06:28:48;;;;;;;1.83;1.30;;;;;;;;;;4996577;28;20206;-41
2023/04/04 06:31:18;;;;;;;2.43;1.63;;;;;;;;;;5014207;28;21248;-41
2023/04/04 06:33:47;;;;;;;2.20;1.43;;;;;;;;;;5014340;28;20200;-44
2023/04/04 06:36:17;;;;;;;2.33;1.60;;;;;;;;;;5013900;28;20205;-48
2023/04/04 06:38:46;;;;;;;2.20;1.43;;;;;;;;;;5013784;28;20185;-40
2023/04/04 06:41:17;;;;;;;2.97;1.73;;;;;;;;;;5014048;28;20603;-40
2023/04/04 06:43:47;;;;;;;1.53;1.07;;;;;;;;;;5011617;28;20201;-40
2023/04/04 06:46:14;;;;;;;2.03;1.30;;;;;;;;;;5031986;28;20205;-39
2023/04/04 06:48:42;;;;;;;1.93;1.10;;;;;;;;;;5032815;28;20239;-40
2023/04/04 06:51:10;;;;;;;2.07;1.50;;;;;;;;;;5014276;28;20205;-46
2023/04/04 06:53:41;;;;;;;2.77;1.40;;;;;;;;;;5010360;28;20252;-40
2023/04/04 06:56:09;;;;;;;1.80;1.40;;;;;;;;;;5027377;28;20259;-44
2023/04/04 06:58:37;;;;;;;1.20;1.10;;;;;;;;;;5030581;28;20221;-46
2023/04/04 07:01:05;;;;;;;1.43;1.33;;;;;;;;;;5007003;28;20291;-40
2023/04/04 07:03:32;;;;;;;2.73;1.73;;;;;;;;;;5009421;28;20221;-40
2023/04/04 07:06:03;;;;;;;3.33;1.60;;;;;;;;;;5030988;28;20587;-40
2023/04/04 07:08:32;;;;;;;3.43;1.87;;;;;;;;;;5029939;28;20700;-40
2023/04/04 07:11:03;;;;;;;2.10;1.53;;;;;;;;;;5031752;28;20204;-40
2023/04/04 07:13:30;;;;;;;1.77;1.60;;;;;;;;;;5035884;28;20208;-39
2023/04/04 07:15:58;;;;;;;3.37;1.73;;;;;;;;;;5036361;28;20204;-43
2023/04/04 07:18:25;;;;;;;1.57;1.37;;;;;;;;;;5035373;28;20287;-39
2023/04/04 07:20:52;;;;;;;0.80;0.80;;;;;;;;;;5036125;28;20283;-39
2023/04/04 07:23:19;;;;;;;2.20;1.50;;;;;;;;;;5036005;28;20227;-39
2023/04/04 07:25:46;;;;;;;2.13;1.40;;;;;;;;;;5035454;28;20238;-39
2023/04/04 07:28:13;;;;;;;1.53;1.30;;;;;;;;;;5036360;28;20216;-39
2023/04/04 07:30:40;;;;;;;2.03;1.30;;;;;;;;;;5034576;28;20240;-40
2023/04/04 07:33:08;;;;;;;2.20;1.00;;;;;;;;;;5034978;28;20220;-40
2023/04/04 07:35:36;;;;;;;2.30;1.27;;;;;;;;;;5036090;28;20211;-40
2023/04/04 07:38:03;;;;;;;2.30;1.47;;;;;;;;;;5035157;28;20211;-40
2023/04/04 07:40:31;;;;;;;2.73;1.77;;;;;;;;;;5035193;28;20565;-40
2023/04/04 07:42:58;;;;;;;1.40;1.10;;;;;;;;;;5033973;28;20292;-41
2023/04/04 07:45:25;;;;;;;1.17;0.93;;;;;;;;;;5034558;28;20201;-39
2023/04/04 07:47:52;;;;;;;1.00;1.00;;;;;;;;;;5035648;28;20204;-39
2023/04/04 07:50:20;;;;;;;1.77;1.30;;;;;;;;;;5035494;28;20205;-40
2023/04/04 07:55:41;;;;;;;1.20;1.10;;;;;;;;;;5035022;28;20216;-40
2023/04/04 07:58:08;;;;;;;1.37;1.10;;;;;;;;;;5035456;28;20197;-40
2023/04/04 08:00:36;;;;;;;1.93;1.37;;;;;;;;;;5035069;28;20228;-40
2023/04/04 08:03:03;;;;;;;1.57;1.30;;;;;;;;;;5034252;28;20251;-40
2023/04/04 08:05:31;;;;;;;2.07;1.03;;;;;;;;;;5034180;28;20532;-40
2023/04/04 08:07:58;;;;;;;3.50;1.27;;;;;;;;;;5034402;28;20595;-40
2023/04/04 08:10:26;;;;;;;1.00;0.90;;;;;;;;;;5035059;28;20220;-40
2023/04/04 08:12:53;;;;;;;1.37;1.03;;;;;;;;;;5035107;28;20212;-39
2023/04/04 08:15:20;;;;;;;0.97;0.90;;;;;;;;;;5034976;28;20731;-40
2023/04/04 08:17:48;;;;;;;1.83;1.40;;;;;;;;;;5035519;28;20211;-39
2023/04/04 08:20:16;;;;;;;3.17;1.00;;;;;;;;;;5034961;28;20239;-40
2023/04/04 08:22:43;;;;;;;1.03;0.93;;;;;;;;;;5035016;28;20196;-40
2023/04/04 08:25:10;;;;;;;0.90;0.90;;;;;;;;;;5035076;28;20677;-40
2023/04/04 08:27:42;;;;;;;1.30;0.80;;;;;;;;;;5034557;28;20197;-40
2023/04/04 08:30:11;;;;;;;1.00;0.90;;;;;;;;;;5033706;28;20232;-40
2023/04/04 08:32:40;;;;;;;1.57;1.20;;;;;;;;;;5033673;28;20223;-39
2023/04/04 08:35:08;;;;;;;1.40;0.83;;;;;;;;;;5033538;28;20192;-39
2023/04/04 08:37:35;;;;;;;0.63;0.63;;;;;;;;;;5034436;28;20275;-39
2023/04/04 08:40:03;;;;;;;1.13;1.10;;;;;;;;;;5033890;28;20205;-40
2023/04/04 08:42:32;;;;;;;3.63;1.00;;;;;;;;;;5033382;28;20250;-40
2023/04/04 08:45:01;;;;;;;1.13;1.00;;;;;;;;;;5033317;28;20201;-43
2023/04/04 08:47:30;;;;;;;2.63;1.23;;;;;;;;;;5033541;28;20244;-39
2023/04/04 08:50:00;;;;;;;0.80;0.80;;;;;;;;;;5033306;28;20204;-39
2023/04/04 08:52:27;;;;;;;0.90;0.90;;;;;;;;;;5032964;28;20292;-45
2023/04/04 08:54:54;;;;;;;1.50;1.10;;;;;;;;;;5030256;28;20193;-42
2023/04/04 08:57:21;;;;;;;2.10;1.07;;;;;;;;;;5032064;28;20205;-40
2023/04/04 08:59:48;;;;;;;1.97;0.80;;;;;;;;;;5032989;28;20247;-42
2023/04/04 09:02:26;;;;;;;1.60;1.23;;;;;;;;;;5033148;28;20228;-40
2023/04/04 09:04:54;;;;;;;2.33;1.47;;;;;;;;;;5033392;28;20197;-40
2023/04/04 09:07:34;;;;;;;1.23;1.07;;;;;;;;;;5033309;28;20181;-44
2023/04/04 09:10:07;;;;;;;1.10;1.00;;;;;;;;;;5033165;28;20735;-40
2023/04/04 09:12:36;;;;;;;0.77;0.60;;;;;;;;;;5032818;28;20204;-45
2023/04/04 09:15:03;;;;;;;1.23;0.97;;;;;;;;;;5027846;28;20197;-40
2023/04/04 09:17:31;;;;;;;1.27;0.87;;;;;;;;;;5031841;28;20196;-42
2023/04/04 09:20:05;;;;;;;1.10;1.00;;;;;;;;;;5031835;28;20541;-40
2023/04/04 09:22:32;;;;;;;0.70;0.70;;;;;;;;;;5032945;28;20181;-39
2023/04/04 09:24:59;;;;;;;0.83;0.70;;;;;;;;;;5032852;28;20275;-39
2023/04/04 09:27:26;;;;;;;0.60;0.60;;;;;;;;;;5032807;28;20209;-40
2023/04/04 09:29:56;;;;;;;1.93;1.23;;;;;;;;;;5027488;28;20220;-40
2023/04/04 09:32:24;;;;;;;0.90;0.80;;;;;;;;;;5011326;28;20223;-41
2023/04/04 09:34:52;;;;;;;2.30;0.90;;;;;;;;;;5029761;28;20243;-44
2023/04/04 09:37:20;;;;;;;1.27;1.17;;;;;;;;;;5032290;28;20220;-42
2023/04/04 09:39:47;;;;;;;1.17;1.00;;;;;;;;;;5032753;28;20665;-40
2023/04/04 09:42:15;;;;;;;1.13;1.07;;;;;;;;;;5032628;28;20239;-46
2023/04/04 09:44:43;;;;;;;0.67;0.67;;;;;;;;;;5029399;28;20505;-41
2023/04/04 09:47:31;;;;;;;1.57;1.00;;;;;;;;;;5029089;28;20232;-39
2023/04/04 09:49:59;;;;;;;2.57;1.20;;;;;;;;;;5028856;28;20240;-41
2023/04/04 09:52:32;;;;;;;0.70;0.60;;;;;;;;;;5029386;28;20227;-47
2023/04/04 09:55:00;;;;;;;0.70;0.70;;;;;;;;;;5029913;28;20319;-41
2023/04/04 09:57:32;;;;;;;1.00;0.97;;;;;;;;;;5031315;28;20221;-43
2023/04/04 10:00:00;;;;;;;1.10;0.77;;;;;;;;;;5008533;28;20588;-40
2023/04/04 10:02:29;;;;;;;1.43;1.00;;;;;;;;;;5029879;28;20239;-45
2023/04/04 10:04:57;;;;;;;1.00;0.90;;;;;;;;;;5028232;28;20319;-40
2023/04/04 10:07:33;;;;;;;1.13;1.03;;;;;;;;;;5030934;28;20216;-44
2023/04/04 10:10:01;;;;;;;1.23;0.90;;;;;;;;;;5029246;28;20212;-40
2023/04/04 10:12:29;;;;;;;2.27;0.90;;;;;;;;;;5029281;28;20614;-40
2023/04/04 10:15:00;;;;;;;1.10;1.00;;;;;;;;;;5028311;28;20319;-42
2023/04/04 10:17:47;;;;;;;0.87;0.87;;;;;;;;;;5031042;28;20229;-45
2023/04/04 10:20:14;;;;;;;0.63;0.63;;;;;;;;;;5026849;28;20227;-40
2023/04/04 10:22:43;;;;;;;0.93;0.90;;;;;;;;;;5029991;28;20228;-40
2023/04/04 10:25:11;;;;;;;0.80;0.80;;;;;;;;;;5029900;28;20283;-40
2023/04/04 10:27:38;;;;;;;1.20;1.10;;;;;;;;;;5028571;28;20217;-43
2023/04/04 10:30:06;;;;;;;1.87;1.17;;;;;;;;;;5030722;28;20314;-43
2023/04/04 10:32:39;;;;;;;0.90;0.90;;;;;;;;;;5030734;28;20701;-43
2023/04/04 10:35:09;;;;;;;0.70;0.70;;;;;;;;;;5030860;28;20220;-46
2023/04/04 10:37:43;;;;;;;0.90;0.90;;;;;;;;;;5010851;28;20255;-40
2023/04/04 10:40:10;;;;;;;0.80;0.80;;;;;;;;;;5029964;28;20567;-40
2023/04/04 10:42:43;;;;;;;0.70;0.50;;;;;;;;;;5027201;28;20236;-40
2023/04/04 10:45:14;;;;;;;1.03;0.73;;;;;;;;;;5034100;28;20220;-41
2023/04/04 10:47:48;;;;;;;1.27;0.80;;;;;;;;;;5033799;28;20273;-41
2023/04/04 10:50:15;;;;;;;0.90;0.70;;;;;;;;;;5033958;28;20278;-40
2023/04/04 10:52:43;;;;;;;1.13;0.90;;;;;;;;;;5031576;28;20223;-40
2023/04/04 10:55:11;;;;;;;0.60;0.60;;;;;;;;;;5034973;28;20212;-46
2023/04/04 10:57:46;;;;;;;0.83;0.80;;;;;;;;;;5033342;28;20200;-45
2023/04/04 11:00:16;;;;;;;0.93;0.73;;;;;;;;;;5034001;28;20279;-40
2023/04/04 11:02:56;;;;;;;1.30;1.00;;;;;;;;;;5036316;28;20212;-40
2023/04/04 11:05:40;;;;;;;1.10;1.00;;;;;;;;;;5030580;28;20193;-40
2023/04/04 11:08:09;;;;;;;2.10;1.07;;;;;;;;;;5033810;28;20646;-41
2023/04/04 11:10:40;;;;;;;0.63;0.63;;;;;;;;;;5036656;28;20233;-39
2023/04/04 11:13:20;;;;;;;1.30;0.90;;;;;;;;;;5036358;28;20657;-40
2023/04/04 11:16:06;;;;;;;0.90;0.90;;;;;;;;;;5035511;28;20192;-40
2023/04/04 11:18:44;;;;;;;1.13;1.03;;;;;;;;;;5034046;28;20200;-40
2023/04/04 11:21:17;;;;;;;1.07;1.00;;;;;;;;;;5033724;28;20251;-42
2023/04/04 11:23:47;;;;;;;1.00;0.80;;;;;;;;;;5031597;28;20660;-40
2023/04/04 11:26:30;;;;;;;0.60;0.60;;;;;;;;;;5034176;28;20252;-41
2023/04/04 11:29:02;;;;;;;2.40;0.70;;;;;;;;;;5034398;28;20197;-40
2023/04/04 11:31:41;;;;;;;1.63;0.70;;;;;;;;;;5034899;28;20197;-45
2023/04/04 11:34:14;;;;;;;1.53;0.90;;;;;;;;;;5033424;28;20219;-43
2023/04/04 11:36:41;;;;;;;0.57;0.57;;;;;;;;;;5034482;28;20673;-40
2023/04/04 11:39:32;;;;;;;1.17;0.77;;;;;;;;;;5034419;28;20723;-45
2023/04/04 11:42:14;;;;;;;0.87;0.87;;;;;;;;;;5034458;28;20847;-45
2023/04/04 11:44:48;;;;;;;1.07;0.77;;;;;;;;;;5033529;28;20185;-40
2023/04/04 11:47:18;;;;;;;2.00;0.87;;;;;;;;;;5034652;28;20193;-41
2023/04/04 11:49:46;;;;;;;0.97;0.77;;;;;;;;;;5033295;28;20196;-56
2023/04/04 11:52:16;;;;;;;2.63;0.80;;;;;;;;;;5029697;28;20205;-42
2023/04/04 11:54:45;;;;;;;1.10;0.90;;;;;;;;;;5033925;28;20552;-42
2023/04/04 11:57:14;;;;;;;1.17;0.90;;;;;;;;;;5030972;28;20200;-44
2023/04/04 11:59:44;;;;;;;1.00;0.90;;;;;;;;;;5034017;28;20193;-44
2023/04/04 12:02:13;;;;;;;1.10;0.90;;;;;;;;;;5035078;28;20212;-41
2023/04/04 12:04:44;;;;;;;1.00;0.90;;;;;;;;;;5033978;28;20265;-43
2023/04/04 12:07:15;;;;;;;2.27;1.30;;;;;;;;;;5031885;28;20665;-42
2023/04/04 12:09:43;;;;;;;1.00;0.90;;;;;;;;;;5034662;28;20661;-42
2023/04/04 12:12:15;;;;;;;1.13;0.73;;;;;;;;;;5015991;28;20201;-43
2023/04/04 12:14:43;;;;;;;0.77;0.77;;;;;;;;;;5034191;28;20193;-41
2023/04/04 12:17:10;;;;;;;1.37;0.80;;;;;;;;;;5033866;28;20292;-42
2023/04/04 12:19:39;;;;;;;2.73;1.07;;;;;;;;;;5033359;28;20208;-44
2023/04/04 12:22:09;;;;;;;1.40;1.00;;;;;;;;;;5032545;28;20230;-42
2023/04/04 12:24:37;;;;;;;1.53;1.10;;;;;;;;;;5031694;28;20212;-41
2023/04/04 12:27:05;;;;;;;1.07;0.90;;;;;;;;;;5034704;28;20212;-41
2023/04/04 12:29:35;;;;;;;1.13;0.90;;;;;;;;;;5032754;28;20311;-41
2023/04/04 12:32:03;;;;;;;0.80;0.80;;;;;;;;;;5032100;28;20205;-41
2023/04/04 12:34:32;;;;;;;1.07;0.83;;;;;;;;;;5030922;28;20203;-43
2023/04/04 12:37:00;;;;;;;1.30;1.17;;;;;;;;;;5026207;28;20205;-49
2023/04/04 12:39:28;;;;;;;1.00;0.90;;;;;;;;;;5030046;28;20282;-46
2023/04/04 12:41:58;;;;;;;1.40;1.30;;;;;;;;;;5031183;28;20350;-47
2023/04/04 12:44:27;;;;;;;1.23;0.90;;;;;;;;;;5032271;28;20224;-46
2023/04/04 12:46:59;;;;;;;3.13;1.57;;;;;;;;;;5030904;28;20252;-42
2023/04/04 12:49:31;;;;;;;4.40;1.20;;;;;;;;;;5032057;28;20595;-46
2023/04/04 12:52:03;;;;;;;3.77;1.20;;;;;;;;;;5014379;28;20307;-43
2023/04/04 12:54:32;;;;;;;1.23;0.93;;;;;;;;;;5031176;28;20259;-42
2023/04/04 12:57:03;;;;;;;0.90;0.80;;;;;;;;;;5032358;28;20762;-46
2023/04/04 12:59:32;;;;;;;1.10;0.90;;;;;;;;;;5032204;28;20310;-43
2023/04/04 13:02:11;;;;;;;3.30;2.23;;;;;;;;;;5032500;28;20268;-44
2023/04/04 13:04:39;;;;;;;8.43;4.00;;;;;;;;;;5027534;28;20220;-43
2023/04/04 13:07:26;;;;;;;7.63;3.43;;;;;;;;;;5013917;28;20278;-42
2023/04/04 13:10:03;;;;;;;1.23;1.10;;;;;;;;;;5025924;28;20228;-42
2023/04/04 13:12:59;;;;;;;1.23;0.83;;;;;;;;;;5032243;28;20847;-43
2023/04/04 13:15:49;;;;;;;1.37;1.00;;;;;;;;;;5031647;28;20231;-43
2023/04/04 13:18:20;;;;;;;2.53;1.37;;;;;;;;;;5024378;28;20220;-42
2023/04/04 13:20:48;;;;;;;2.37;1.00;;;;;;;;;;5032302;28;20243;-42
2023/04/04 13:23:16;;;;;;;1.57;1.20;;;;;;;;;;5027586;28;20307;-41
2023/04/04 13:25:43;;;;;;;1.70;1.13;;;;;;;;;;5032324;28;20224;-42
2023/04/04 13:28:10;;;;;;;3.10;1.20;;;;;;;;;;5031979;28;20224;-42
2023/04/04 13:30:42;;;;;;;0.93;0.83;;;;;;;;;;5031604;28;20232;-42
2023/04/04 13:33:09;;;;;;;1.40;0.87;;;;;;;;;;5031701;28;20213;-43
2023/04/04 13:35:37;;;;;;;2.73;1.40;;;;;;;;;;5031989;28;20243;-43
2023/04/04 13:38:05;;;;;;;1.30;1.13;;;;;;;;;;5032773;28;20435;-47
2023/04/04 13:40:33;;;;;;;1.40;1.00;;;;;;;;;;5028883;28;20220;-42
2023/04/04 13:43:00;;;;;;;1.60;1.23;;;;;;;;;;5031688;28;20232;-43
2023/04/04 13:45:27;;;;;;;1.17;0.93;;;;;;;;;;5029056;28;20225;-42
2023/04/04 13:47:54;;;;;;;2.93;0.93;;;;;;;;;;5029316;28;20221;-46
2023/04/04 13:50:22;;;;;;;1.10;1.00;;;;;;;;;;5029657;28;20216;-43
2023/04/04 13:52:52;;;;;;;2.00;1.23;;;;;;;;;;5029804;28;20311;-49
2023/04/04 13:55:20;;;;;;;1.67;1.03;;;;;;;;;;5028361;28;20273;-42
2023/04/04 13:57:47;;;;;;;1.60;1.03;;;;;;;;;;5030679;28;20307;-40
2023/04/04 14:00:15;;;;;;;1.33;1.03;;;;;;;;;;5031521;28;20270;-41
2023/04/04 14:02:42;;;;;;;1.27;0.90;;;;;;;;;;5028236;28;20228;-44
2023/04/04 14:05:10;;;;;;;1.27;1.07;;;;;;;;;;5028825;28;20252;-42
2023/04/04 14:07:37;;;;;;;1.50;1.10;;;;;;;;;;5028854;28;20228;-41
2023/04/04 14:10:05;;;;;;;2.37;1.10;;;;;;;;;;5028384;28;20230;-45
2023/04/04 14:12:33;;;;;;;1.80;1.27;;;;;;;;;;5029853;28;20265;-44
2023/04/04 14:15:00;;;;;;;2.07;1.00;;;;;;;;;;5029599;28;20700;-43
2023/04/04 14:17:27;;;;;;;1.63;1.13;;;;;;;;;;5030984;28;20225;-43
2023/04/04 14:19:55;;;;;;;1.03;0.80;;;;;;;;;;5031964;28;20651;-46
2023/04/04 14:22:22;;;;;;;1.80;1.30;;;;;;;;;;5033022;28;20232;-41
2023/04/04 14:24:49;;;;;;;1.77;1.10;;;;;;;;;;5034189;28;20216;-45
2023/04/04 14:27:16;;;;;;;2.57;1.40;;;;;;;;;;5028812;28;20223;-41
2023/04/04 14:29:43;;;;;;;1.93;1.13;;;;;;;;;;5042590;28;20242;-44
2023/04/04 14:32:10;;;;;;;1.73;1.00;;;;;;;;;;5035261;28;20232;-42
2023/04/04 14:34:38;;;;;;;3.10;1.53;;;;;;;;;;5034718;28;20247;-42
2023/04/04 14:37:06;;;;;;;1.47;1.03;;;;;;;;;;5036717;28;20799;-44
2023/04/04 14:39:33;;;;;;;2.13;1.13;;;;;;;;;;5030579;28;20220;-41
2023/04/04 14:42:00;;;;;;;1.93;1.03;;;;;;;;;;5033818;28;20237;-43
2023/04/04 14:44:27;;;;;;;1.23;0.80;;;;;;;;;;5033883;28;20591;-42
2023/04/04 14:46:55;;;;;;;2.70;1.13;;;;;;;;;;5034478;28;20295;-42
2023/04/04 14:49:23;;;;;;;0.93;0.87;;;;;;;;;;5034169;28;20228;-42
2023/04/04 14:51:51;;;;;;;1.60;1.10;;;;;;;;;;5034425;28;20581;-42
2023/04/04 14:54:18;;;;;;;2.20;0.90;;;;;;;;;;5033244;28;20774;-41
2023/04/04 14:56:46;;;;;;;2.03;1.00;;;;;;;;;;5034507;28;20221;-42
2023/04/04 14:59:13;;;;;;;2.63;1.07;;;;;;;;;;5034796;28;20223;-42
2023/04/04 15:01:40;;;;;;;1.77;1.10;;;;;;;;;;5030360;28;20220;-42
2023/04/04 15:04:08;;;;;;;1.40;1.00;;;;;;;;;;5034301;28;20225;-42
2023/04/04 15:06:36;;;;;;;2.97;1.10;;;;;;;;;;5033927;28;20709;-41
2023/04/04 15:09:04;;;;;;;3.97;1.73;;;;;;;;;;5035754;28;20688;-42
2023/04/04 15:11:32;;;;;;;1.47;0.70;;;;;;;;;;5026661;28;20681;-41
2023/04/04 15:13:59;;;;;;;1.47;0.97;;;;;;;;;;5049924;28;20229;-42
2023/04/04 15:16:31;;;;;;;1.83;1.20;;;;;;;;;;5035606;28;20591;-41
2023/04/04 15:18:59;;;;;;;1.70;1.30;;;;;;;;;;5048685;28;20224;-42
2023/04/04 15:21:27;;;;;;;1.93;1.00;;;;;;;;;;5037280;28;20296;-45
2023/04/04 15:23:55;;;;;;;1.80;1.40;;;;;;;;;;5039408;28;20227;-40
2023/04/04 15:26:22;;;;;;;1.03;0.90;;;;;;;;;;5024073;28;20240;-41
2023/04/04 15:28:49;;;;;;;0.97;0.93;;;;;;;;;;5035331;28;20689;-40
2023/04/04 15:31:16;;;;;;;2.10;1.17;;;;;;;;;;5033808;28;20235;-40